logo
Search for airport 
image banner adimage banner adimage banner ad
image banner ad

YTTS - Tartrus

Located in Mount Gardiner, Australia

ICAO - , IATA -

Data provided by Airmate  

General information

Coordinates: S22°57'12" E149°25'40"
Elevation is 326 feet MSL.
Magnetic variation is 9° East
View others Airports in Queensland

Operational data

Special qualification required
Current time UTC:
Current local time:
Weather at : - ( 0 km )
METAR: CZUM 180327Z AUTO 23005KT 150V260 9SM OVC033 13/12 A2976 RMK SLP090 DENSITY ALT 1800FT
View NOTAMs / SUP AIP / TFR affecting this airport [VIEW]
Communications frequencies: [VIEW]

Runways:

RWY identifierQFULength (ft)Width (ft)SurfaceLDA (ft)
26267°509483DIRT
0887°509483DIRT
20209°232365DIRT
0229°232365DIRT

Airport contact information

Address: Mount Gardiner Australia

Satellite view of YTTS